Time;durP1;ratioP1;P1;durP2;ratioP2;P2;SDS_P1;SDS_P2;PMS_P1;PMS_P2;Temp;Humidity;BMP_temperature;BMP_pressure;BME280_temperature;BME280_humidity;BME280_pressure;Samples;Min_cycle;Max_cycle;Signal;HPM_P1;HPM_P2
2022/07/09 00:01:46;;;;;;;12.48;4.85;;;17.30;99.90;;;;;;5075104;28;20490;-70
2022/07/09 00:04:11;;;;;;;12.55;5.03;;;17.50;99.90;;;;;;5073852;28;20040;-69
2022/07/09 00:06:37;;;;;;;11.25;4.72;;;18.50;99.90;;;;;;5074858;28;20047;-69
2022/07/09 00:09:03;;;;;;;12.77;5.05;;;17.70;99.90;;;;;;5073424;28;20072;-69
2022/07/09 00:11:28;;;;;;;10.00;4.80;;;17.30;99.90;;;;;;5073761;28;20075;-70
2022/07/09 00:13:54;;;;;;;13.30;5.07;;;17.60;99.90;;;;;;5073654;28;20499;-69
2022/07/09 00:16:19;;;;;;;11.27;5.10;;;17.80;99.90;;;;;;5073663;28;20043;-69
2022/07/09 00:18:45;;;;;;;10.68;5.22;;;17.20;99.90;;;;;;5073534;28;20044;-69
2022/07/09 00:21:10;;;;;;;11.55;5.38;;;18.20;99.90;;;;;;5074501;28;20494;-69
2022/07/09 00:23:36;;;;;;;13.90;5.40;;;17.10;99.90;;;;;;5074785;28;20040;-69
2022/07/09 00:26:01;;;;;;;13.20;6.32;;;17.20;99.90;;;;;;5073289;28;20068;-69
2022/07/09 00:28:27;;;;;;;15.57;6.00;;;18.70;99.90;;;;;;5074811;28;20040;-70
2022/07/09 00:30:53;;;;;;;19.65;7.13;;;17.60;99.90;;;;;;5073198;28;20597;-69
2022/07/09 00:33:19;;;;;;;14.20;5.93;;;17.50;99.90;;;;;;5074614;28;20066;-69
2022/07/09 00:35:44;;;;;;;15.48;5.70;;;17.30;99.90;;;;;;5097471;22;20105;-70
2022/07/09 00:38:10;;;;;;;12.10;6.55;;;17.30;99.90;;;;;;5055120;28;20032;-70
2022/07/09 00:40:36;;;;;;;12.38;6.32;;;17.30;99.90;;;;;;5071949;28;20486;-70
2022/07/09 00:43:01;;;;;;;11.90;6.47;;;17.30;99.90;;;;;;5072683;28;20036;-69
2022/07/09 00:45:27;;;;;;;15.82;6.30;;;17.30;99.90;;;;;;5073695;28;20115;-69
2022/07/09 00:47:52;;;;;;;16.40;7.88;;;17.50;99.90;;;;;;5072813;28;20048;-70
2022/07/09 00:50:18;;;;;;;14.40;7.32;;;17.50;99.90;;;;;;5072172;28;20032;-69
2022/07/09 00:52:45;;;;;;;14.95;7.10;;;17.30;99.90;;;;;;5073836;28;20032;-69
2022/07/09 00:55:11;;;;;;;21.70;7.88;;;17.20;99.90;;;;;;5073640;28;20490;-69
2022/07/09 00:57:38;;;;;;;14.40;6.55;;;17.40;99.90;;;;;;5072616;28;20037;-70
2022/07/09 01:00:05;;;;;;;11.73;7.40;;;18.30;99.90;;;;;;5071936;28;20494;-70
2022/07/09 01:02:30;;;;;;;15.52;7.60;;;17.30;99.90;;;;;;5072224;28;20044;-70
2022/07/09 01:04:56;;;;;;;15.82;7.60;;;17.40;99.90;;;;;;5072401;28;20048;-69
2022/07/09 01:07:21;;;;;;;14.95;7.28;;;17.40;99.90;;;;;;5072403;28;20120;-71
2022/07/09 01:09:47;;;;;;;16.70;7.28;;;17.40;99.90;;;;;;5055363;28;20144;-72
2022/07/09 01:12:13;;;;;;;15.38;7.55;;;17.20;99.90;;;;;;5072282;28;20606;-70
2022/07/09 01:14:39;;;;;;;10.70;6.72;;;17.40;99.90;;;;;;5072222;28;20044;-70
2022/07/09 01:17:06;;;;;;;15.68;7.50;;;17.10;99.90;;;;;;5071945;28;20036;-69
2022/07/09 01:19:33;;;;;;;15.65;7.35;;;18.10;99.90;;;;;;5073135;28;20040;-70
2022/07/09 01:21:59;;;;;;;15.85;7.95;;;17.20;99.90;;;;;;5055372;28;20055;-70
2022/07/09 01:24:25;;;;;;;12.57;6.63;;;18.10;99.90;;;;;;5073205;28;20036;-70
2022/07/09 01:26:54;;;;;;;11.82;6.20;;;19.00;99.90;;;;;;5072026;28;20406;-71
2022/07/09 01:29:20;;;;;;;15.02;6.63;;;17.30;99.90;;;;;;5071343;28;20037;-69
2022/07/09 01:31:46;;;;;;;12.15;5.95;;;17.30;99.90;;;;;;5071744;28;20044;-69
2022/07/09 01:34:12;;;;;;;13.00;5.90;;;19.00;99.90;;;;;;5071661;28;20036;-69
2022/07/09 01:36:37;;;;;;;16.38;7.68;;;17.20;99.90;;;;;;5054690;28;20049;-70
2022/07/09 01:39:03;;;;;;;15.10;6.03;;;17.70;99.90;;;;;;5071318;28;20478;-72
2022/07/09 01:41:30;;;;;;;9.35;5.38;;;17.30;99.90;;;;;;5071405;28;20093;-70
2022/07/09 01:43:56;;;;;;;14.48;6.22;;;18.20;99.90;;;;;;5072665;28;20047;-70
2022/07/09 01:46:22;;;;;;;12.32;6.13;;;17.20;99.90;;;;;;5072875;28;20033;-70
2022/07/09 01:48:47;;;;;;;13.40;5.57;;;17.40;99.90;;;;;;5072811;28;20043;-69
2022/07/09 01:51:13;;;;;;;10.75;5.45;;;18.20;99.90;;;;;;5071081;28;20062;-70
2022/07/09 01:53:39;;;;;;;11.60;4.82;;;17.20;99.90;;;;;;5054644;28;20040;-70
2022/07/09 01:56:09;;;;;;;12.68;5.07;;;17.30;99.90;;;;;;5071118;28;20044;-69
2022/07/09 01:58:36;;;;;;;9.40;4.57;;;17.20;99.90;;;;;;5072268;28;20561;-69
2022/07/09 02:01:02;;;;;;;13.75;4.50;;;18.30;99.90;;;;;;5072225;28;20037;-69
2022/07/09 02:03:28;;;;;;;23.83;6.15;;;17.30;99.90;;;;;;5071505;28;20444;-70
2022/07/09 02:05:54;;;;;;;9.13;4.90;;;18.20;99.90;;;;;;5070977;28;20177;-70
2022/07/09 02:08:19;;;;;;;13.82;4.47;;;17.20;99.90;;;;;;5072244;28;20040;-69
2022/07/09 02:10:45;;;;;;;8.40;5.03;;;17.90;99.90;;;;;;5071927;28;20028;-69
2022/07/09 02:13:12;;;;;;;10.40;4.35;;;18.80;99.90;;;;;;5072037;28;20047;-70
2022/07/09 02:15:39;;;;;;;11.00;4.35;;;18.00;99.90;;;;;;5070731;28;20602;-70
2022/07/09 02:18:04;;;;;;;9.63;4.80;;;17.10;99.90;;;;;;5054113;28;20076;-70
2022/07/09 02:20:30;;;;;;;11.43;5.13;;;17.30;99.90;;;;;;5070398;28;20072;-69
2022/07/09 02:22:56;;;;;;;10.00;4.82;;;17.00;99.90;;;;;;5072049;28;20040;-69
2022/07/09 02:25:21;;;;;;;8.48;4.28;;;17.00;99.90;;;;;;5070594;28;20059;-69
2022/07/09 02:27:47;;;;;;;12.10;4.57;;;17.10;99.90;;;;;;5070543;28;20044;-69
2022/07/09 02:30:13;;;;;;;9.57;5.28;;;18.00;99.90;;;;;;5053911;28;20071;-69
2022/07/09 02:32:39;;;;;;;11.18;4.97;;;18.00;99.90;;;;;;5071860;28;20106;-69
2022/07/09 02:35:05;;;;;;;11.88;5.53;;;17.30;99.90;;;;;;5071603;28;20037;-69
2022/07/09 02:37:31;;;;;;;16.08;5.50;;;17.20;99.90;;;;;;5071938;28;20045;-70
2022/07/09 02:39:57;;;;;;;13.32;5.30;;;18.70;99.90;;;;;;5071599;28;20040;-69
2022/07/09 02:42:23;;;;;;;8.80;4.60;;;17.30;99.90;;;;;;5053995;28;20410;-69
2022/07/09 02:44:48;;;;;;;9.70;4.88;;;17.20;99.90;;;;;;5070621;28;20051;-69
2022/07/09 02:47:14;;;;;;;7.68;4.50;;;17.60;99.90;;;;;;5071730;28;20049;-69
2022/07/09 02:49:40;;;;;;;10.25;4.65;;;17.20;99.90;;;;;;5069993;28;20037;-69
2022/07/09 02:52:06;;;;;;;11.63;4.53;;;17.40;99.90;;;;;;5071646;28;20036;-69
2022/07/09 02:54:32;;;;;;;9.18;4.10;;;17.40;99.90;;;;;;5070275;28;20119;-70
2022/07/09 02:56:57;;;;;;;11.88;4.63;;;17.20;99.90;;;;;;5070365;28;20072;-71
2022/07/09 02:59:23;;;;;;;8.07;3.83;;;17.10;99.90;;;;;;5069888;28;20114;-69
2022/07/09 03:01:49;;;;;;;9.02;3.92;;;17.20;99.90;;;;;;5071178;28;20029;-69
2022/07/09 03:04:14;;;;;;;11.00;4.13;;;17.30;99.90;;;;;;5070361;28;20441;-69
2022/07/09 03:06:40;;;;;;;10.07;3.78;;;17.20;99.90;;;;;;5071337;28;20045;-71
2022/07/09 03:09:06;;;;;;;8.27;4.07;;;16.90;99.90;;;;;;5053204;28;20127;-69
2022/07/09 03:11:32;;;;;;;6.35;3.53;;;17.20;99.90;;;;;;5053286;28;20033;-69
2022/07/09 03:13:57;;;;;;;9.90;4.00;;;18.50;99.90;;;;;;5071567;28;20043;-69
2022/07/09 03:16:23;;;;;;;8.45;3.78;;;17.20;99.90;;;;;;5071215;28;20040;-69
2022/07/09 03:18:49;;;;;;;8.25;3.58;;;16.80;99.90;;;;;;5069977;28;20045;-70
2022/07/09 03:21:14;;;;;;;8.77;4.82;;;17.30;99.90;;;;;;5053222;28;20498;-69
2022/07/09 03:23:40;;;;;;;12.25;3.80;;;17.10;99.90;;;;;;5071343;28;20095;-69
2022/07/09 03:26:06;;;;;;;11.25;4.55;;;16.90;99.90;;;;;;5069867;28;20388;-69
2022/07/09 03:28:33;;;;;;;8.48;4.32;;;18.40;99.90;;;;;;5069905;28;20119;-69
2022/07/09 03:30:59;;;;;;;12.30;4.55;;;17.80;99.90;;;;;;5069641;28;20036;-69
2022/07/09 03:33:25;;;;;;;13.63;4.75;;;17.60;99.90;;;;;;5071427;28;20036;-69
2022/07/09 03:35:50;;;;;;;8.77;4.32;;;17.00;99.90;;;;;;5071096;28;20071;-69
2022/07/09 03:38:16;;;;;;;7.47;4.28;;;17.40;99.90;;;;;;5071195;28;20037;-69
2022/07/09 03:40:41;;;;;;;9.02;4.28;;;17.50;99.90;;;;;;5070704;28;20101;-69
2022/07/09 03:43:07;;;;;;;12.93;5.55;;;17.40;99.90;;;;;;5071179;28;20047;-69
2022/07/09 03:45:32;;;;;;;8.63;4.57;;;16.90;99.90;;;;;;5069490;28;20040;-69
2022/07/09 03:47:58;;;;;;;12.60;4.78;;;17.10;99.90;;;;;;5052926;28;20040;-71
2022/07/09 03:50:24;;;;;;;10.43;4.72;;;17.10;99.90;;;;;;5070618;28;20040;-69
2022/07/09 03:52:49;;;;;;;9.52;4.72;;;17.10;99.90;;;;;;5070957;28;20118;-69
2022/07/09 03:55:15;;;;;;;7.03;4.63;;;17.00;99.90;;;;;;5069725;28;20047;-70
2022/07/09 03:57:42;;;;;;;9.75;5.35;;;18.00;99.90;;;;;;5071135;28;20123;-70
2022/07/09 04:00:08;;;;;;;9.43;5.25;;;16.90;99.90;;;;;;5070790;28;20048;-69
2022/07/09 04:02:33;;;;;;;13.73;5.97;;;16.90;99.90;;;;;;5069529;28;20145;-69
2022/07/09 04:04:59;;;;;;;13.57;5.97;;;17.00;99.90;;;;;;5069795;28;20471;-70
2022/07/09 04:07:26;;;;;;;14.00;5.30;;;17.10;99.90;;;;;;5069490;28;20128;-69
2022/07/09 04:09:53;;;;;;;8.98;4.68;;;17.00;99.90;;;;;;5069516;28;20378;-69
2022/07/09 04:12:22;;;;;;;9.93;5.10;;;17.80;99.90;;;;;;5070015;28;20037;-69
2022/07/09 04:14:48;;;;;;;12.10;4.95;;;17.00;99.90;;;;;;5073455;28;20055;-71
2022/07/09 04:17:13;;;;;;;8.82;4.93;;;17.10;99.90;;;;;;5056708;28;20139;-69
2022/07/09 04:19:39;;;;;;;10.02;4.43;;;17.10;99.90;;;;;;5074201;28;20082;-69
2022/07/09 04:22:05;;;;;;;9.88;5.03;;;17.00;99.90;;;;;;5074376;28;20033;-69
2022/07/09 04:24:31;;;;;;;7.63;4.88;;;17.20;99.90;;;;;;5073004;28;20044;-70
2022/07/09 04:26:56;;;;;;;10.82;5.43;;;17.20;99.90;;;;;;5072954;28;20044;-70
2022/07/09 04:29:22;;;;;;;13.13;4.95;;;17.50;99.90;;;;;;5074109;28;20107;-69
2022/07/09 04:31:48;;;;;;;12.27;5.22;;;16.90;99.90;;;;;;5072813;28;20036;-69
2022/07/09 04:34:13;;;;;;;9.80;5.03;;;18.40;99.90;;;;;;5056170;28;20036;-69
2022/07/09 04:36:39;;;;;;;11.88;4.95;;;17.40;99.90;;;;;;5072591;28;20089;-69
2022/07/09 04:39:05;;;;;;;9.05;4.78;;;18.00;99.90;;;;;;5073750;28;20046;-69
2022/07/09 04:41:30;;;;;;;9.27;5.05;;;18.70;99.90;;;;;;5055950;28;20048;-69
2022/07/09 04:43:56;;;;;;;10.70;4.38;;;16.90;99.90;;;;;;5073880;28;20123;-69
2022/07/09 04:46:22;;;;;;;8.50;4.13;;;17.20;99.90;;;;;;5073841;28;20036;-69
2022/07/09 04:48:51;;;;;;;8.48;4.40;;;17.30;99.90;;;;;;5072818;28;20036;-69
2022/07/09 04:51:16;;;;;;;10.25;4.38;;;17.10;99.90;;;;;;5073645;28;20059;-69
2022/07/09 04:53:42;;;;;;;14.85;3.92;;;18.00;99.90;;;;;;5073965;28;20474;-69
2022/07/09 04:56:08;;;;;;;11.18;4.80;;;17.50;99.90;;;;;;5072647;28;20113;-69
2022/07/09 04:58:34;;;;;;;7.68;4.35;;;17.50;99.90;;;;;;5073834;28;20094;-69
2022/07/09 05:01:00;;;;;;;9.98;4.00;;;17.20;99.90;;;;;;5072054;28;20597;-69
2022/07/09 05:03:25;;;;;;;7.70;3.70;;;17.70;99.90;;;;;;5072325;28;20118;-69
2022/07/09 05:05:51;;;;;;;9.50;4.85;;;17.40;99.90;;;;;;5072182;28;20403;-69
2022/07/09 05:08:18;;;;;;;10.27;4.30;;;19.00;99.90;;;;;;5073464;28;20045;-69
2022/07/09 05:10:44;;;;;;;12.98;5.38;;;17.40;99.90;;;;;;5073137;28;20490;-69
2022/07/09 05:13:10;;;;;;;12.85;3.78;;;18.40;99.90;;;;;;5072306;28;20040;-69
2022/07/09 05:15:35;;;;;;;7.18;3.63;;;17.50;99.90;;;;;;5073381;28;20071;-69
2022/07/09 05:18:01;;;;;;;8.57;4.13;;;18.80;99.90;;;;;;5072061;28;20123;-69
2022/07/09 05:20:26;;;;;;;7.60;3.63;;;17.80;99.90;;;;;;5071890;28;20132;-69
2022/07/09 05:22:52;;;;;;;6.78;3.30;;;16.10;99.90;;;;;;5073691;28;20086;-70
2022/07/09 05:25:18;;;;;;;9.25;3.47;;;17.50;99.90;;;;;;5072258;28;20068;-69
2022/07/09 05:27:45;;;;;;;6.55;3.50;;;18.50;99.90;;;;;;5071784;28;20032;-71
2022/07/09 05:30:15;;;;;;;9.15;3.58;;;18.10;99.90;;;;;;5071633;28;20414;-69
2022/07/09 05:32:41;;;;;;;6.22;2.95;;;18.50;99.90;;;;;;5071826;28;20106;-69
2022/07/09 05:35:08;;;;;;;5.05;3.28;;;17.60;99.90;;;;;;5072840;28;20459;-69
2022/07/09 05:37:34;;;;;;;9.05;4.13;;;17.60;99.90;;;;;;5066842;28;20078;-69
2022/07/09 05:40:05;;;;;;;7.05;3.20;;;17.70;99.90;;;;;;5073115;28;20383;-69
2022/07/09 05:42:32;;;;;;;6.05;3.25;;;17.80;99.90;;;;;;5071679;28;20055;-69
2022/07/09 05:44:58;;;;;;;8.65;3.25;;;17.80;99.90;;;;;;5073583;28;20085;-69
2022/07/09 05:47:23;;;;;;;6.63;3.90;;;19.40;99.90;;;;;;5072535;28;20127;-69
2022/07/09 05:49:49;;;;;;;7.50;3.55;;;19.40;99.90;;;;;;5071722;28;20036;-70
2022/07/09 05:52:14;;;;;;;7.30;3.17;;;17.80;99.90;;;;;;5074516;28;20401;-69
2022/07/09 05:54:40;;;;;;;6.18;3.38;;;16.80;99.90;;;;;;5073210;28;20033;-69
2022/07/09 05:57:06;;;;;;;8.55;4.05;;;18.00;99.90;;;;;;5052858;28;20033;-69
2022/07/09 05:59:31;;;;;;;6.75;4.07;;;19.40;99.90;;;;;;5052407;28;20039;-71
2022/07/09 06:01:57;;;;;;;5.85;3.40;;;17.80;99.90;;;;;;5052422;28;20033;-69
2022/07/09 06:04:23;;;;;;;9.48;3.58;;;18.70;99.90;;;;;;5072006;28;20033;-69
2022/07/09 06:06:48;;;;;;;10.13;4.30;;;18.00;99.90;;;;;;5065784;28;20336;-69
2022/07/09 06:09:14;;;;;;;8.38;3.85;;;18.10;99.90;;;;;;5050663;28;20037;-69
2022/07/09 06:11:39;;;;;;;6.55;3.35;;;19.00;99.90;;;;;;5052401;28;20036;-69
2022/07/09 06:14:05;;;;;;;9.05;3.70;;;18.00;99.90;;;;;;5052192;28;20029;-69
2022/07/09 06:16:31;;;;;;;6.30;3.63;;;18.20;99.90;;;;;;5050784;28;20087;-69
2022/07/09 06:18:56;;;;;;;5.07;2.90;;;18.00;99.90;;;;;;5050409;28;20076;-69
2022/07/09 06:21:22;;;;;;;5.07;3.50;;;18.30;99.90;;;;;;5052132;28;20041;-69
2022/07/09 06:23:47;;;;;;;11.30;3.40;;;18.10;99.90;;;;;;5050635;28;20060;-69
2022/07/09 06:26:13;;;;;;;4.55;3.33;;;18.00;99.90;;;;;;5060144;28;20571;-71
2022/07/09 06:28:39;;;;;;;6.63;3.08;;;18.10;99.90;;;;;;5056800;28;20124;-69
2022/07/09 06:31:04;;;;;;;3.88;2.58;;;18.10;99.90;;;;;;5049079;28;20033;-69
2022/07/09 06:33:30;;;;;;;6.18;3.00;;;19.10;99.90;;;;;;5068595;28;20482;-69
2022/07/09 06:35:56;;;;;;;18.63;3.92;;;19.60;99.90;;;;;;5094693;22;20386;-69
2022/07/09 06:38:21;;;;;;;9.25;3.17;;;19.90;99.90;;;;;;5070949;28;20453;-68
2022/07/09 06:40:47;;;;;;;5.28;2.70;;;18.00;99.90;;;;;;5070152;28;20034;-69
2022/07/09 06:43:12;;;;;;;7.40;2.70;;;18.20;99.90;;;;;;5072205;28;20032;-68
2022/07/09 06:45:38;;;;;;;8.25;3.30;;;18.50;99.90;;;;;;5071743;28;20040;-68
2022/07/09 06:48:04;;;;;;;7.00;2.75;;;18.40;99.90;;;;;;5054498;28;20025;-68
2022/07/09 06:50:30;;;;;;;5.32;2.70;;;18.50;99.90;;;;;;5058754;28;20040;-68
2022/07/09 06:52:55;;;;;;;6.20;2.90;;;19.70;99.90;;;;;;5044817;28;20071;-69
2022/07/09 06:55:21;;;;;;;6.22;2.67;;;18.70;99.90;;;;;;5066028;28;20044;-69
2022/07/09 06:57:47;;;;;;;5.55;2.42;;;19.90;99.90;;;;;;5060430;28;20036;-70
2022/07/09 07:00:13;;;;;;;7.10;2.03;;;18.70;99.90;;;;;;5065079;28;20044;-69
2022/07/09 07:02:39;;;;;;;4.03;2.30;;;18.60;99.90;;;;;;5066347;28;20082;-69
2022/07/09 07:05:05;;;;;;;6.00;2.58;;;18.30;99.90;;;;;;5063226;28;20449;-69
2022/07/09 07:07:31;;;;;;;5.22;2.17;;;18.60;99.90;;;;;;5065093;28;20040;-69
2022/07/09 07:09:56;;;;;;;5.97;1.95;;;18.40;99.90;;;;;;5063077;28;20043;-69
2022/07/09 07:12:22;;;;;;;5.82;2.38;;;19.40;99.90;;;;;;5064562;28;20040;-69
2022/07/09 07:14:48;;;;;;;4.78;2.47;;;18.50;99.90;;;;;;5062135;28;20040;-68
2022/07/09 07:17:13;;;;;;;3.85;1.77;;;18.90;99.90;;;;;;5063435;28;20044;-69
2022/07/09 07:19:39;;;;;;;5.43;2.28;;;18.50;99.90;;;;;;5065523;28;20052;-69
2022/07/09 07:22:05;;;;;;;12.18;2.40;;;18.60;99.90;;;;;;5063849;28;20040;-70
2022/07/09 07:24:30;;;;;;;4.68;2.13;;;18.70;99.90;;;;;;5064871;28;20041;-69
2022/07/09 07:26:57;;;;;;;5.75;1.95;;;18.70;99.90;;;;;;5060868;28;20036;-69
2022/07/09 07:29:23;;;;;;;10.02;2.45;;;19.50;99.90;;;;;;5063483;28;20398;-69
2022/07/09 07:31:49;;;;;;;5.90;2.83;;;18.90;99.90;;;;;;5064818;28;20039;-69
2022/07/09 07:34:15;;;;;;;5.63;2.78;;;20.30;99.90;;;;;;5064095;28;20036;-69
2022/07/09 07:36:40;;;;;;;8.68;2.03;;;19.10;99.90;;;;;;5064737;28;20044;-70
2022/07/09 07:39:06;;;;;;;4.28;1.80;;;20.10;99.90;;;;;;5061887;28;20085;-70
2022/07/09 07:41:31;;;;;;;6.55;2.33;;;19.50;99.90;;;;;;5065988;28;20046;-69
2022/07/09 07:43:57;;;;;;;10.23;4.18;;;19.20;99.90;;;;;;5066469;28;20515;-69
2022/07/09 07:46:23;;;;;;;6.55;1.83;;;19.80;99.90;;;;;;5065437;28;20048;-70
2022/07/09 07:48:48;;;;;;;8.20;1.92;;;19.90;99.90;;;;;;5053157;28;20028;-71
2022/07/09 07:51:14;;;;;;;4.47;1.90;;;20.20;99.90;;;;;;5066138;28;20045;-70
2022/07/09 07:53:39;;;;;;;6.40;1.98;;;20.70;99.90;;;;;;5070324;28;20044;-70
2022/07/09 07:56:06;;;;;;;10.93;2.72;;;19.70;99.90;;;;;;5048760;28;20499;-70
2022/07/09 07:58:33;;;;;;;7.50;2.35;;;19.80;99.90;;;;;;5068314;28;20068;-70
2022/07/09 08:00:58;;;;;;;8.82;3.90;;;19.80;99.90;;;;;;5068909;28;20115;-70
2022/07/09 08:03:24;;;;;;;7.07;2.75;;;19.90;99.90;;;;;;5066098;28;20127;-70
2022/07/09 08:05:50;;;;;;;9.85;3.95;;;19.90;99.90;;;;;;5069485;28;20506;-70
2022/07/09 08:08:18;;;;;;;9.88;3.28;;;19.90;99.90;;;;;;5066760;28;20024;-68
2022/07/09 08:10:44;;;;;;;5.53;2.03;;;20.00;99.90;;;;;;5067231;28;20047;-68
2022/07/09 08:13:11;;;;;;;7.45;2.47;;;20.10;99.90;;;;;;5064203;28;20024;-70
2022/07/09 08:15:37;;;;;;;5.50;3.10;;;20.60;99.90;;;;;;5049606;28;20044;-69
2022/07/09 08:18:03;;;;;;;5.25;1.83;;;20.60;99.90;;;;;;5052879;28;20085;-70
2022/07/09 08:20:29;;;;;;;7.85;2.25;;;19.90;99.90;;;;;;5065628;28;20456;-69
2022/07/09 08:22:54;;;;;;;6.75;2.55;;;20.40;99.90;;;;;;5068168;28;20080;-69
2022/07/09 08:25:20;;;;;;;7.78;2.22;;;20.50;99.90;;;;;;5066060;28;20412;-69
2022/07/09 08:27:45;;;;;;;4.03;1.60;;;21.00;99.90;;;;;;5066927;28;20490;-68
2022/07/09 08:30:11;;;;;;;5.50;1.98;;;20.30;99.90;;;;;;5070615;28;20032;-69
2022/07/09 08:32:38;;;;;;;5.70;1.95;;;20.30;99.90;;;;;;5058976;28;20044;-70
2022/07/09 08:35:05;;;;;;;8.68;1.77;;;20.10;99.90;;;;;;5069266;28;20037;-70
2022/07/09 08:37:30;;;;;;;7.28;1.50;;;20.50;99.90;;;;;;5070702;28;20508;-70
2022/07/09 08:39:56;;;;;;;4.85;1.95;;;22.10;99.90;;;;;;5067303;28;20041;-70
2022/07/09 08:42:21;;;;;;;6.53;2.20;;;21.00;99.90;;;;;;5064379;28;20509;-70
2022/07/09 08:44:47;;;;;;;3.28;1.23;;;20.80;99.90;;;;;;5067994;28;20120;-70
2022/07/09 08:47:15;;;;;;;8.05;2.60;;;20.60;99.90;;;;;;5064695;28;20437;-70
2022/07/09 08:49:42;;;;;;;3.72;2.10;;;21.00;99.90;;;;;;5066192;28;20118;-69
2022/07/09 08:52:08;;;;;;;8.93;2.08;;;22.20;99.90;;;;;;5070670;28;20040;-70
2022/07/09 08:54:37;;;;;;;6.35;1.90;;;21.90;99.90;;;;;;5065500;28;20033;-70
2022/07/09 08:57:04;;;;;;;12.50;3.88;;;20.50;99.90;;;;;;5084258;28;20039;-69
2022/07/09 08:59:30;;;;;;;5.95;1.70;;;20.50;99.90;;;;;;5068165;28;20042;-69
2022/07/09 09:01:55;;;;;;;5.30;1.67;;;20.80;99.90;;;;;;5066039;28;20045;-69
2022/07/09 09:04:21;;;;;;;6.07;2.72;;;20.80;99.90;;;;;;5068008;28;20528;-71
2022/07/09 09:06:47;;;;;;;6.00;2.50;;;21.30;99.90;;;;;;5070035;28;20044;-70
2022/07/09 09:09:19;;;;;;;5.63;1.70;;;21.50;99.90;;;;;;5069656;28;20040;-69
2022/07/09 09:11:48;;;;;;;6.78;2.22;;;21.60;99.90;;;;;;5068623;28;20510;-68
2022/07/09 09:14:20;;;;;;;6.03;2.30;;;21.30;99.90;;;;;;5068528;28;20036;-69
2022/07/09 09:16:47;;;;;;;5.38;1.65;;;20.90;99.90;;;;;;5068578;28;20093;-70
2022/07/09 09:19:13;;;;;;;5.80;2.38;;;21.70;99.90;;;;;;5062508;28;20044;-69
2022/07/09 09:21:39;;;;;;;8.07;2.55;;;21.40;99.90;;;;;;5064297;28;20040;-69
2022/07/09 09:24:05;;;;;;;5.40;2.35;;;20.80;99.90;;;;;;5068563;28;20037;-69
2022/07/09 09:26:30;;;;;;;5.72;1.77;;;20.50;99.90;;;;;;5065248;28;20220;-69
2022/07/09 09:29:01;;;;;;;5.10;2.08;;;21.00;99.90;;;;;;5067984;28;20064;-69
2022/07/09 09:31:34;;;;;;;5.30;1.83;;;21.00;99.90;;;;;;5067895;28;20047;-69
2022/07/09 09:34:08;;;;;;;6.18;3.13;;;21.50;99.90;;;;;;5063090;28;20060;-69
2022/07/09 09:36:40;;;;;;;7.85;2.03;;;22.30;99.90;;;;;;5046425;28;20464;-69
2022/07/09 09:39:18;;;;;;;7.95;2.63;;;21.00;99.90;;;;;;5080461;28;20043;-70
2022/07/09 09:41:49;;;;;;;5.97;2.53;;;21.20;99.90;;;;;;5067763;28;20055;-69
2022/07/09 09:44:26;;;;;;;6.70;1.77;;;21.50;99.90;;;;;;5064768;28;20570;-70
2022/07/09 09:46:52;;;;;;;5.03;1.35;;;21.50;99.90;;;;;;5068277;28;20051;-70
2022/07/09 09:49:18;;;;;;;7.75;2.55;;;21.10;99.90;;;;;;5063488;28;20037;-71
2022/07/09 09:51:49;;;;;;;8.10;2.25;;;20.70;99.90;;;;;;5064008;28;20072;-70
2022/07/09 09:54:17;;;;;;;3.72;1.80;;;20.80;99.90;;;;;;5054916;28;20041;-70
2022/07/09 09:56:43;;;;;;;9.90;2.67;;;21.70;99.90;;;;;;5067156;28;20429;-69
2022/07/09 09:59:10;;;;;;;5.25;1.58;;;21.10;99.90;;;;;;5066530;28;20044;-69
2022/07/09 10:01:36;;;;;;;11.48;3.38;;;20.80;99.90;;;;;;5067870;28;20090;-69
2022/07/09 10:04:01;;;;;;;5.72;2.15;;;21.10;99.90;;;;;;5062872;28;20045;-69
2022/07/09 10:06:27;;;;;;;5.45;1.98;;;21.20;99.90;;;;;;5067567;28;20045;-69
2022/07/09 10:08:56;;;;;;;9.88;4.20;;;21.30;99.90;;;;;;5060307;28;20568;-69
2022/07/09 10:11:23;;;;;;;5.53;1.88;;;21.20;99.90;;;;;;5066644;28;20043;-69
2022/07/09 10:13:56;;;;;;;7.63;1.92;;;21.70;99.90;;;;;;5060107;28;20086;-70
2022/07/09 10:16:40;;;;;;;7.28;1.70;;;20.50;99.90;;;;;;5066443;28;20059;-68
2022/07/09 10:19:06;;;;;;;10.70;2.45;;;20.90;99.90;;;;;;5057377;28;20040;-69
2022/07/09 10:21:33;;;;;;;9.25;2.20;;;20.90;99.90;;;;;;5066138;28;20124;-69
2022/07/09 10:23:58;;;;;;;6.10;1.70;;;20.80;99.90;;;;;;5065576;28;20051;-69
2022/07/09 10:26:43;;;;;;;5.43;1.60;;;20.70;99.90;;;;;;5064560;28;20045;-69
2022/07/09 10:29:28;;;;;;;4.95;1.58;;;20.70;99.90;;;;;;5061572;28;20662;-69
2022/07/09 10:31:55;;;;;;;4.88;1.50;;;21.00;99.90;;;;;;5065650;28;20036;-69
2022/07/09 10:34:48;;;;;;;5.53;2.17;;;20.60;99.90;;;;;;5067973;28;20032;-70
2022/07/09 10:37:13;;;;;;;7.63;2.20;;;20.60;99.90;;;;;;5057476;28;20048;-69
2022/07/09 10:39:39;;;;;;;5.07;1.60;;;20.70;99.90;;;;;;5064089;28;20032;-70
2022/07/09 10:42:25;;;;;;;5.60;1.85;;;19.80;99.90;;;;;;5061382;28;20098;-70
2022/07/09 10:44:51;;;;;;;11.57;2.10;;;20.00;99.90;;;;;;5062651;28;20053;-70
2022/07/09 10:47:17;;;;;;;6.82;1.70;;;19.60;99.90;;;;;;5050329;28;20043;-70
2022/07/09 10:49:43;;;;;;;7.80;2.20;;;19.60;99.90;;;;;;5061706;28;20040;-70
2022/07/09 10:52:09;;;;;;;7.38;1.48;;;19.70;99.90;;;;;;5066650;28;20036;-70
2022/07/09 10:54:45;;;;;;;8.45;1.48;;;19.80;99.90;;;;;;5063091;28;20561;-69
2022/07/09 10:57:12;;;;;;;5.78;1.95;;;20.00;99.90;;;;;;5062685;28;20055;-71
2022/07/09 10:59:38;;;;;;;9.57;1.88;;;19.40;99.90;;;;;;5049082;28;20048;-70
2022/07/09 11:02:04;;;;;;;8.52;2.47;;;19.30;99.90;;;;;;5064148;28;20041;-68
2022/07/09 11:04:33;;;;;;;9.02;1.73;;;19.50;99.90;;;;;;5061087;28;20036;-70
2022/07/09 11:06:59;;;;;;;8.38;1.58;;;20.60;99.90;;;;;;5064421;28;20112;-71
2022/07/09 11:09:30;;;;;;;8.52;2.17;;;19.70;99.90;;;;;;5064096;28;20203;-69
2022/07/09 11:11:56;;;;;;;8.52;1.90;;;20.20;99.90;;;;;;5064161;28;20530;-69
2022/07/09 11:14:21;;;;;;;9.50;1.65;;;20.00;99.90;;;;;;5062072;28;20075;-71
2022/07/09 11:16:55;;;;;;;6.22;1.27;;;20.30;99.90;;;;;;5067191;28;20106;-70
2022/07/09 11:19:21;;;;;;;9.65;1.80;;;21.20;99.90;;;;;;5045356;28;20174;-70
2022/07/09 11:21:47;;;;;;;8.98;2.30;;;21.30;99.90;;;;;;5066833;28;20049;-69
2022/07/09 11:24:19;;;;;;;7.00;3.10;;;21.40;99.90;;;;;;5067229;28;20443;-71
2022/07/09 11:26:45;;;;;;;10.35;1.50;;;20.90;99.90;;;;;;5068126;28;20111;-71
2022/07/09 11:29:11;;;;;;;3.83;0.82;;;21.20;99.90;;;;;;5070751;28;20692;-71
2022/07/09 11:31:37;;;;;;;6.63;1.20;;;20.70;99.90;;;;;;5066855;28;20033;-71
2022/07/09 11:34:13;;;;;;;6.50;1.40;;;20.80;99.90;;;;;;5046054;28;20386;-71
2022/07/09 11:36:46;;;;;;;5.82;1.10;;;20.30;99.90;;;;;;5067522;28;20040;-71
2022/07/09 11:39:23;;;;;;;3.30;0.93;;;20.60;99.90;;;;;;5068839;28;20039;-71
2022/07/09 11:41:49;;;;;;;3.42;0.93;;;21.20;99.90;;;;;;5066672;28;20064;-71
2022/07/09 11:44:33;;;;;;;5.05;0.90;;;21.70;99.90;;;;;;5069226;28;20074;-70
2022/07/09 11:47:10;;;;;;;5.00;1.30;;;21.90;99.90;;;;;;5071445;28;20127;-70
2022/07/09 11:49:38;;;;;;;4.65;0.95;;;21.60;99.90;;;;;;5070126;28;20047;-71
2022/07/09 11:52:18;;;;;;;5.07;0.95;;;21.00;99.90;;;;;;5070098;28;20079;-72
2022/07/09 11:55:06;;;;;;;5.85;1.27;;;20.30;99.90;;;;;;5071474;28;20410;-71
2022/07/09 11:57:34;;;;;;;4.00;1.10;;;20.50;99.90;;;;;;5065823;28;20055;-71
2022/07/09 12:00:01;;;;;;;4.15;1.45;;;21.00;99.90;;;;;;5062034;28;20040;-71
2022/07/09 12:02:29;;;;;;;5.25;1.10;;;21.20;99.90;;;;;;5049274;28;20036;-70
2022/07/09 12:04:56;;;;;;;3.80;1.10;;;20.80;99.90;;;;;;5051677;28;20048;-71
2022/07/09 12:07:21;;;;;;;5.13;1.00;;;20.60;99.90;;;;;;5065993;28;20044;-71
2022/07/09 12:10:00;;;;;;;4.03;0.88;;;20.80;99.90;;;;;;5068897;28;20067;-70
2022/07/09 12:12:28;;;;;;;4.25;0.82;;;21.50;99.90;;;;;;5064419;28;20071;-71
2022/07/09 12:14:57;;;;;;;2.75;0.80;;;21.10;99.90;;;;;;5068038;28;20515;-72
2022/07/09 12:17:24;;;;;;;2.60;0.68;;;20.60;99.90;;;;;;5068843;28;20044;-71
2022/07/09 12:19:50;;;;;;;4.82;0.90;;;20.70;99.90;;;;;;5065270;28;20262;-71
2022/07/09 12:22:16;;;;;;;4.88;1.20;;;20.80;99.90;;;;;;5068449;28;20109;-72
2022/07/09 12:24:42;;;;;;;3.45;1.73;;;20.90;99.90;;;;;;5048067;28;20557;-69
2022/07/09 12:27:08;;;;;;;2.40;0.75;;;21.40;99.90;;;;;;5067088;28;20060;-70
2022/07/09 12:29:34;;;;;;;3.85;1.10;;;20.90;99.90;;;;;;5052704;28;20044;-69
2022/07/09 12:31:59;;;;;;;3.80;0.90;;;21.10;99.90;;;;;;5059354;28;20029;-70
2022/07/09 12:34:25;;;;;;;6.25;0.93;;;21.60;99.90;;;;;;5064892;28;20036;-70
2022/07/09 12:36:51;;;;;;;3.85;0.88;;;21.30;99.90;;;;;;5097922;22;20040;-71
2022/07/09 12:39:16;;;;;;;2.10;0.88;;;21.30;99.90;;;;;;5081779;28;20048;-70
2022/07/09 12:41:42;;;;;;;2.40;0.90;;;20.60;99.90;;;;;;5079901;28;20135;-70